sensor_id;sensor_type;location;lat;lon;timestamp;P1;durP1;ratioP1;P2;durP2;ratioP2
64595;SDS011;51003;51.628;6.670;2023-04-03T02:14:05;4.40;;;4.00;;
64595;SDS011;51003;51.628;6.670;2023-04-03T02:16:53;4.00;;;3.43;;
64595;SDS011;51003;51.628;6.670;2023-04-03T02:19:21;3.90;;;3.60;;
64595;SDS011;51003;51.628;6.670;2023-04-03T02:21:48;5.73;;;3.70;;
64595;SDS011;51003;51.628;6.670;2023-04-03T02:24:16;4.40;;;4.00;;
64595;SDS011;51003;51.628;6.670;2023-04-03T02:26:45;6.13;;;4.03;;
64595;SDS011;51003;51.628;6.670;2023-04-03T02:29:40;6.37;;;4.27;;
64595;SDS011;51003;51.628;6.670;2023-04-03T02:32:10;6.53;;;4.40;;
64595;SDS011;51003;51.628;6.670;2023-04-03T02:34:40;5.23;;;4.10;;
64595;SDS011;51003;51.628;6.670;2023-04-03T02:37:33;5.60;;;4.37;;
64595;SDS011;51003;51.628;6.670;2023-04-03T02:40:32;9.97;;;4.70;;
64595;SDS011;51003;51.628;6.670;2023-04-03T02:43:05;7.00;;;4.50;;
64595;SDS011;51003;51.628;6.670;2023-04-03T02:45:31;9.10;;;5.30;;
64595;SDS011;51003;51.628;6.670;2023-04-03T02:47:57;5.80;;;4.33;;
64595;SDS011;51003;51.628;6.670;2023-04-03T02:50:24;5.70;;;4.27;;
64595;SDS011;51003;51.628;6.670;2023-04-03T02:52:53;5.20;;;4.20;;
64595;SDS011;51003;51.628;6.670;2023-04-03T02:55:27;4.97;;;4.20;;
64595;SDS011;51003;51.628;6.670;2023-04-03T02:57:53;8.20;;;4.57;;
64595;SDS011;51003;51.628;6.670;2023-04-03T03:00:23;6.10;;;4.07;;
64595;SDS011;51003;51.628;6.670;2023-04-03T03:02:53;4.77;;;3.73;;
64595;SDS011;51003;51.628;6.670;2023-04-03T03:05:24;3.83;;;3.47;;
64595;SDS011;51003;51.628;6.670;2023-04-03T03:08:15;5.83;;;3.63;;
64595;SDS011;51003;51.628;6.670;2023-04-03T03:11:07;5.10;;;3.83;;
64595;SDS011;51003;51.628;6.670;2023-04-03T03:13:56;5.87;;;4.30;;
64595;SDS011;51003;51.628;6.670;2023-04-03T03:16:34;4.13;;;3.73;;
64595;SDS011;51003;51.628;6.670;2023-04-03T03:19:49;4.97;;;3.93;;
64595;SDS011;51003;51.628;6.670;2023-04-03T03:22:39;4.73;;;3.77;;
64595;SDS011;51003;51.628;6.670;2023-04-03T03:33:15;4.20;;;2.75;;
64595;SDS011;51003;51.628;6.670;2023-04-03T03:35:48;2.83;;;2.63;;
64595;SDS011;51003;51.628;6.670;2023-04-03T03:38:15;2.83;;;2.53;;
64595;SDS011;51003;51.628;6.670;2023-04-03T03:41:02;2.30;;;2.10;;
64595;SDS011;51003;51.628;6.670;2023-04-03T03:43:29;2.87;;;1.97;;
64595;SDS011;51003;51.628;6.670;2023-04-03T03:46:03;2.80;;;1.95;;
64595;SDS011;51003;51.628;6.670;2023-04-03T03:48:36;2.13;;;2.03;;
64595;SDS011;51003;51.628;6.670;2023-04-03T03:51:02;9.00;;;2.20;;
64595;SDS011;51003;51.628;6.670;2023-04-03T03:53:45;2.23;;;2.03;;
64595;SDS011;51003;51.628;6.670;2023-04-03T03:56:10;1.80;;;1.70;;
64595;SDS011;51003;51.628;6.670;2023-04-03T03:58:40;4.47;;;1.90;;
64595;SDS011;51003;51.628;6.670;2023-04-03T04:07:45;3.00;;;1.63;;
64595;SDS011;51003;51.628;6.670;2023-04-03T04:10:13;2.03;;;1.93;;
64595;SDS011;51003;51.628;6.670;2023-04-03T04:12:43;5.23;;;2.00;;
64595;SDS011;51003;51.628;6.670;2023-04-03T04:15:22;5.53;;;2.10;;
64595;SDS011;51003;51.628;6.670;2023-04-03T04:18:00;4.13;;;2.30;;
64595;SDS011;51003;51.628;6.670;2023-04-03T04:21:12;4.27;;;1.90;;
64595;SDS011;51003;51.628;6.670;2023-04-03T04:27:27;4.33;;;2.00;;
64595;SDS011;51003;51.628;6.670;2023-04-03T04:30:07;2.27;;;1.80;;
64595;SDS011;51003;51.628;6.670;2023-04-03T05:20:32;2.53;;;2.13;;
64595;SDS011;51003;51.628;6.670;2023-04-03T05:22:58;2.30;;;1.47;;
64595;SDS011;51003;51.628;6.670;2023-04-03T05:25:24;2.80;;;1.63;;
64595;SDS011;51003;51.628;6.670;2023-04-03T05:27:50;1.83;;;1.73;;
64595;SDS011;51003;51.628;6.670;2023-04-03T05:30:16;3.53;;;1.90;;
64595;SDS011;51003;51.628;6.670;2023-04-03T05:32:42;5.80;;;1.73;;
64595;SDS011;51003;51.628;6.670;2023-04-03T05:35:08;2.83;;;1.70;;
64595;SDS011;51003;51.628;6.670;2023-04-03T05:40:55;2.83;;;2.00;;
64595;SDS011;51003;51.628;6.670;2023-04-03T05:43:28;4.17;;;1.70;;
64595;SDS011;51003;51.628;6.670;2023-04-03T05:45:53;2.67;;;1.90;;
64595;SDS011;51003;51.628;6.670;2023-04-03T05:48:19;2.00;;;1.80;;
64595;SDS011;51003;51.628;6.670;2023-04-03T05:51:00;7.43;;;2.00;;
64595;SDS011;51003;51.628;6.670;2023-04-03T08:59:28;5.53;;;1.40;;
64595;SDS011;51003;51.628;6.670;2023-04-03T09:16:20;1.70;;;1.37;;
64595;SDS011;51003;51.628;6.670;2023-04-03T09:19:21;3.53;;;1.20;;
64595;SDS011;51003;51.628;6.670;2023-04-03T10:03:25;1.73;;;1.63;;
64595;SDS011;51003;51.628;6.670;2023-04-03T10:09:31;1.40;;;1.30;;
64595;SDS011;51003;51.628;6.670;2023-04-03T10:15:28;1.30;;;1.20;;
64595;SDS011;51003;51.628;6.670;2023-04-03T10:33:53;4.70;;;1.77;;
64595;SDS011;51003;51.628;6.670;2023-04-03T10:54:46;3.03;;;1.37;;
64595;SDS011;51003;51.628;6.670;2023-04-03T11:00:45;2.07;;;1.40;;
64595;SDS011;51003;51.628;6.670;2023-04-03T11:03:20;2.30;;;1.50;;
64595;SDS011;51003;51.628;6.670;2023-04-03T11:05:52;1.73;;;1.27;;
64595;SDS011;51003;51.628;6.670;2023-04-03T11:08:23;1.40;;;1.30;;
64595;SDS011;51003;51.628;6.670;2023-04-03T11:10:51;2.23;;;1.67;;
64595;SDS011;51003;51.628;6.670;2023-04-03T11:13:37;1.67;;;1.30;;
64595;SDS011;51003;51.628;6.670;2023-04-03T11:16:06;1.80;;;1.70;;
64595;SDS011;51003;51.628;6.670;2023-04-03T11:18:37;4.30;;;1.47;;
64595;SDS011;51003;51.628;6.670;2023-04-03T11:24:15;1.40;;;1.30;;
64595;SDS011;51003;51.628;6.670;2023-04-03T11:26:46;3.00;;;1.30;;
64595;SDS011;51003;51.628;6.670;2023-04-03T11:29:14;2.40;;;1.27;;
64595;SDS011;51003;51.628;6.670;2023-04-03T11:34:47;1.70;;;1.53;;
64595;SDS011;51003;51.628;6.670;2023-04-03T11:38:01;1.73;;;1.63;;
64595;SDS011;51003;51.628;6.670;2023-04-03T11:42:40;1.40;;;1.30;;
64595;SDS011;51003;51.628;6.670;2023-04-03T11:47:44;1.57;;;1.47;;
64595;SDS011;51003;51.628;6.670;2023-04-03T11:55:44;1.50;;;1.40;;
64595;SDS011;51003;51.628;6.670;2023-04-03T11:58:14;2.30;;;1.80;;
64595;SDS011;51003;51.628;6.670;2023-04-03T12:24:33;1.83;;;1.40;;
64595;SDS011;51003;51.628;6.670;2023-04-03T12:32:06;2.70;;;2.10;;
64595;SDS011;51003;51.628;6.670;2023-04-03T12:34:46;2.30;;;1.30;;
64595;SDS011;51003;51.628;6.670;2023-04-03T12:48:55;2.60;;;1.20;;
64595;SDS011;51003;51.628;6.670;2023-04-03T12:51:41;2.23;;;1.67;;
64595;SDS011;51003;51.628;6.670;2023-04-03T12:54:30;2.60;;;1.60;;
64595;SDS011;51003;51.628;6.670;2023-04-03T12:57:19;2.00;;;1.63;;
64595;SDS011;51003;51.628;6.670;2023-04-03T12:59:55;1.30;;;1.20;;
64595;SDS011;51003;51.628;6.670;2023-04-03T13:02:32;2.40;;;1.60;;
64595;SDS011;51003;51.628;6.670;2023-04-03T13:04:59;1.73;;;1.50;;
64595;SDS011;51003;51.628;6.670;2023-04-03T13:07:32;2.03;;;1.60;;
64595;SDS011;51003;51.628;6.670;2023-04-03T13:12:33;1.87;;;1.70;;
64595;SDS011;51003;51.628;6.670;2023-04-03T13:15:00;2.57;;;1.50;;
64595;SDS011;51003;51.628;6.670;2023-04-03T13:17:29;2.90;;;1.70;;
64595;SDS011;51003;51.628;6.670;2023-04-03T13:23:21;1.73;;;1.63;;
64595;SDS011;51003;51.628;6.670;2023-04-03T13:25:48;2.40;;;1.50;;
64595;SDS011;51003;51.628;6.670;2023-04-03T13:28:15;1.63;;;1.37;;
64595;SDS011;51003;51.628;6.670;2023-04-03T13:31:20;1.57;;;1.47;;
64595;SDS011;51003;51.628;6.670;2023-04-03T13:36:37;1.47;;;1.37;;
64595;SDS011;51003;51.628;6.670;2023-04-03T13:41:35;2.60;;;1.77;;
64595;SDS011;51003;51.628;6.670;2023-04-03T13:50:33;3.73;;;1.50;;
64595;SDS011;51003;51.628;6.670;2023-04-03T13:53:26;4.20;;;1.50;;
64595;SDS011;51003;51.628;6.670;2023-04-03T14:08:51;1.70;;;1.40;;
64595;SDS011;51003;51.628;6.670;2023-04-03T14:14:43;5.90;;;1.50;;
64595;SDS011;51003;51.628;6.670;2023-04-03T14:17:16;2.43;;;1.60;;
64595;SDS011;51003;51.628;6.670;2023-04-03T14:19:44;1.70;;;1.60;;
64595;SDS011;51003;51.628;6.670;2023-04-03T14:24:46;2.20;;;1.57;;
64595;SDS011;51003;51.628;6.670;2023-04-03T14:27:20;2.20;;;1.83;;
64595;SDS011;51003;51.628;6.670;2023-04-03T14:29:48;2.40;;;1.60;;
64595;SDS011;51003;51.628;6.670;2023-04-03T14:32:15;2.43;;;1.70;;
64595;SDS011;51003;51.628;6.670;2023-04-03T14:34:42;1.90;;;1.50;;
64595;SDS011;51003;51.628;6.670;2023-04-03T14:37:10;1.83;;;1.30;;
64595;SDS011;51003;51.628;6.670;2023-04-03T14:39:36;3.17;;;1.40;;
64595;SDS011;51003;51.628;6.670;2023-04-03T14:42:02;2.90;;;1.70;;
64595;SDS011;51003;51.628;6.670;2023-04-03T14:44:39;1.73;;;1.30;;
64595;SDS011;51003;51.628;6.670;2023-04-03T14:47:05;3.97;;;1.60;;
64595;SDS011;51003;51.628;6.670;2023-04-03T14:49:32;2.10;;;1.47;;
64595;SDS011;51003;51.628;6.670;2023-04-03T14:55:40;1.93;;;1.40;;
64595;SDS011;51003;51.628;6.670;2023-04-03T15:01:44;1.50;;;1.40;;
64595;SDS011;51003;51.628;6.670;2023-04-03T15:04:17;1.87;;;1.60;;
64595;SDS011;51003;51.628;6.670;2023-04-03T15:06:43;1.50;;;1.37;;
64595;SDS011;51003;51.628;6.670;2023-04-03T15:09:22;2.40;;;1.50;;
64595;SDS011;51003;51.628;6.670;2023-04-03T15:11:50;2.57;;;1.90;;
64595;SDS011;51003;51.628;6.670;2023-04-03T15:14:16;2.10;;;1.43;;
64595;SDS011;51003;51.628;6.670;2023-04-03T15:19:58;2.20;;;2.00;;
64595;SDS011;51003;51.628;6.670;2023-04-03T15:22:24;1.70;;;1.60;;
64595;SDS011;51003;51.628;6.670;2023-04-03T15:24:58;2.93;;;2.00;;
64595;SDS011;51003;51.628;6.670;2023-04-03T15:31:04;1.70;;;1.60;;
64595;SDS011;51003;51.628;6.670;2023-04-03T15:33:30;3.50;;;2.47;;
64595;SDS011;51003;51.628;6.670;2023-04-03T15:35:57;1.90;;;1.80;;
64595;SDS011;51003;51.628;6.670;2023-04-03T15:44:40;2.47;;;1.83;;
64595;SDS011;51003;51.628;6.670;2023-04-03T15:47:06;4.40;;;2.10;;
64595;SDS011;51003;51.628;6.670;2023-04-03T15:49:32;2.40;;;1.60;;
64595;SDS011;51003;51.628;6.670;2023-04-03T15:52:11;2.63;;;2.17;;
64595;SDS011;51003;51.628;6.670;2023-04-03T15:54:43;2.60;;;1.57;;
64595;SDS011;51003;51.628;6.670;2023-04-03T15:57:09;2.67;;;1.63;;
64595;SDS011;51003;51.628;6.670;2023-04-03T15:59:34;3.90;;;1.97;;
64595;SDS011;51003;51.628;6.670;2023-04-03T16:02:00;4.60;;;1.70;;
64595;SDS011;51003;51.628;6.670;2023-04-03T16:04:26;3.93;;;1.80;;
64595;SDS011;51003;51.628;6.670;2023-04-03T16:06:53;3.10;;;1.70;;
64595;SDS011;51003;51.628;6.670;2023-04-03T16:09:28;3.57;;;1.87;;
64595;SDS011;51003;51.628;6.670;2023-04-03T16:14:40;6.73;;;2.20;;
64595;SDS011;51003;51.628;6.670;2023-04-03T16:17:06;4.13;;;2.20;;
64595;SDS011;51003;51.628;6.670;2023-04-03T16:19:33;2.13;;;1.87;;
64595;SDS011;51003;51.628;6.670;2023-04-03T16:24:58;3.00;;;2.00;;
64595;SDS011;51003;51.628;6.670;2023-04-03T16:27:24;3.40;;;1.73;;
64595;SDS011;51003;51.628;6.670;2023-04-03T16:29:53;4.63;;;1.50;;
64595;SDS011;51003;51.628;6.670;2023-04-03T16:32:19;4.33;;;1.77;;
64595;SDS011;51003;51.628;6.670;2023-04-03T16:34:45;3.80;;;1.83;;
64595;SDS011;51003;51.628;6.670;2023-04-03T16:37:10;6.60;;;2.03;;
64595;SDS011;51003;51.628;6.670;2023-04-03T16:39:36;2.13;;;1.47;;
64595;SDS011;51003;51.628;6.670;2023-04-03T16:42:02;2.70;;;1.43;;
64595;SDS011;51003;51.628;6.670;2023-04-03T16:44:36;1.90;;;1.53;;
64595;SDS011;51003;51.628;6.670;2023-04-03T16:50:27;4.53;;;1.97;;
64595;SDS011;51003;51.628;6.670;2023-04-03T16:56:17;3.90;;;1.63;;
64595;SDS011;51003;51.628;6.670;2023-04-03T16:58:42;4.30;;;1.70;;
64595;SDS011;51003;51.628;6.670;2023-04-03T17:01:09;3.50;;;1.80;;
64595;SDS011;51003;51.628;6.670;2023-04-03T17:03:38;2.93;;;1.70;;
64595;SDS011;51003;51.628;6.670;2023-04-03T17:06:07;1.70;;;1.60;;
64595;SDS011;51003;51.628;6.670;2023-04-03T17:08:42;2.00;;;1.63;;
64595;SDS011;51003;51.628;6.670;2023-04-03T17:11:28;2.90;;;1.97;;
64595;SDS011;51003;51.628;6.670;2023-04-03T17:14:18;4.83;;;2.50;;
64595;SDS011;51003;51.628;6.670;2023-04-03T17:17:13;3.60;;;2.00;;
64595;SDS011;51003;51.628;6.670;2023-04-03T17:20:04;2.27;;;2.07;;
64595;SDS011;51003;51.628;6.670;2023-04-03T17:22:35;2.50;;;2.27;;
64595;SDS011;51003;51.628;6.670;2023-04-03T17:25:27;6.10;;;2.90;;
64595;SDS011;51003;51.628;6.670;2023-04-03T17:27:58;3.47;;;2.80;;
64595;SDS011;51003;51.628;6.670;2023-04-03T17:30:57;3.23;;;1.80;;
64595;SDS011;51003;51.628;6.670;2023-04-03T17:33:39;5.33;;;1.90;;
64595;SDS011;51003;51.628;6.670;2023-04-03T17:36:35;3.33;;;2.20;;
64595;SDS011;51003;51.628;6.670;2023-04-03T17:39:19;4.77;;;1.90;;
64595;SDS011;51003;51.628;6.670;2023-04-03T17:41:59;3.20;;;2.03;;
64595;SDS011;51003;51.628;6.670;2023-04-03T17:45:00;2.70;;;2.30;;
64595;SDS011;51003;51.628;6.670;2023-04-03T17:47:57;3.23;;;2.10;;
64595;SDS011;51003;51.628;6.670;2023-04-03T17:51:13;2.50;;;1.90;;
64595;SDS011;51003;51.628;6.670;2023-04-03T17:54:07;2.57;;;2.10;;
64595;SDS011;51003;51.628;6.670;2023-04-03T17:56:58;5.23;;;3.10;;
64595;SDS011;51003;51.628;6.670;2023-04-03T18:00:09;4.00;;;2.83;;
64595;SDS011;51003;51.628;6.670;2023-04-03T18:02:58;4.70;;;2.20;;
64595;SDS011;51003;51.628;6.670;2023-04-03T18:05:31;1.83;;;1.70;;
64595;SDS011;51003;51.628;6.670;2023-04-03T18:08:06;2.23;;;1.87;;
64595;SDS011;51003;51.628;6.670;2023-04-03T18:10:35;3.87;;;1.83;;
64595;SDS011;51003;51.628;6.670;2023-04-03T18:54:54;2.73;;;1.97;;
64595;SDS011;51003;51.628;6.670;2023-04-03T18:57:49;3.23;;;2.20;;
64595;SDS011;51003;51.628;6.670;2023-04-03T19:27:17;5.33;;;2.10;;
64595;SDS011;51003;51.628;6.670;2023-04-03T19:29:50;4.13;;;2.20;;
64595;SDS011;51003;51.628;6.670;2023-04-03T19:32:16;3.90;;;2.37;;
64595;SDS011;51003;51.628;6.670;2023-04-03T19:34:43;3.43;;;2.50;;
64595;SDS011;51003;51.628;6.670;2023-04-03T19:37:09;3.80;;;2.00;;
64595;SDS011;51003;51.628;6.670;2023-04-03T19:39:36;3.50;;;1.70;;
64595;SDS011;51003;51.628;6.670;2023-04-03T19:42:03;1.93;;;1.83;;
64595;SDS011;51003;51.628;6.670;2023-04-03T19:44:32;2.43;;;2.10;;
64595;SDS011;51003;51.628;6.670;2023-04-03T19:47:00;2.77;;;1.77;;
64595;SDS011;51003;51.628;6.670;2023-04-03T19:49:27;2.90;;;1.83;;
64595;SDS011;51003;51.628;6.670;2023-04-03T19:51:53;3.90;;;2.20;;
64595;SDS011;51003;51.628;6.670;2023-04-03T19:54:20;3.60;;;2.80;;
64595;SDS011;51003;51.628;6.670;2023-04-03T19:56:47;3.57;;;2.20;;
64595;SDS011;51003;51.628;6.670;2023-04-03T19:59:13;5.17;;;3.43;;
64595;SDS011;51003;51.628;6.670;2023-04-03T20:01:40;6.83;;;4.07;;
64595;SDS011;51003;51.628;6.670;2023-04-03T20:04:08;7.73;;;5.53;;
64595;SDS011;51003;51.628;6.670;2023-04-03T20:06:34;13.40;;;8.23;;
64595;SDS011;51003;51.628;6.670;2023-04-03T20:09:01;12.47;;;7.50;;
64595;SDS011;51003;51.628;6.670;2023-04-03T20:11:28;11.83;;;6.93;;
64595;SDS011;51003;51.628;6.670;2023-04-03T20:13:54;9.13;;;5.47;;
64595;SDS011;51003;51.628;6.670;2023-04-03T20:16:30;7.03;;;5.10;;
64595;SDS011;51003;51.628;6.670;2023-04-03T20:18:55;6.87;;;4.67;;
64595;SDS011;51003;51.628;6.670;2023-04-03T20:21:28;7.43;;;4.73;;
64595;SDS011;51003;51.628;6.670;2023-04-03T20:23:56;7.10;;;4.80;;
64595;SDS011;51003;51.628;6.670;2023-04-03T20:26:24;7.07;;;4.80;;
64595;SDS011;51003;51.628;6.670;2023-04-03T20:28:51;10.30;;;4.50;;
64595;SDS011;51003;51.628;6.670;2023-04-03T20:31:19;5.70;;;4.50;;
64595;SDS011;51003;51.628;6.670;2023-04-03T20:33:45;7.23;;;5.23;;
64595;SDS011;51003;51.628;6.670;2023-04-03T20:36:12;5.40;;;4.10;;
64595;SDS011;51003;51.628;6.670;2023-04-03T20:41:25;4.03;;;3.20;;
64595;SDS011;51003;51.628;6.670;2023-04-03T20:43:50;3.33;;;2.93;;
64595;SDS011;51003;51.628;6.670;2023-04-03T20:46:17;6.70;;;4.23;;
64595;SDS011;51003;51.628;6.670;2023-04-03T20:48:44;8.77;;;4.97;;
64595;SDS011;51003;51.628;6.670;2023-04-03T20:51:12;8.33;;;4.73;;
64595;SDS011;51003;51.628;6.670;2023-04-03T20:53:42;6.93;;;4.63;;
64595;SDS011;51003;51.628;6.670;2023-04-03T20:56:08;8.80;;;5.30;;
64595;SDS011;51003;51.628;6.670;2023-04-03T20:58:34;11.47;;;6.03;;
64595;SDS011;51003;51.628;6.670;2023-04-03T21:04:38;11.07;;;6.40;;
64595;SDS011;51003;51.628;6.670;2023-04-03T21:19:26;12.20;;;6.10;;
64595;SDS011;51003;51.628;6.670;2023-04-03T21:22:00;10.97;;;6.00;;
64595;SDS011;51003;51.628;6.670;2023-04-03T21:24:39;13.53;;;6.50;;
64595;SDS011;51003;51.628;6.670;2023-04-03T21:27:05;14.73;;;6.40;;
64595;SDS011;51003;51.628;6.670;2023-04-03T21:29:32;10.67;;;6.43;;
64595;SDS011;51003;51.628;6.670;2023-04-03T21:32:03;10.77;;;6.00;;
64595;SDS011;51003;51.628;6.670;2023-04-03T21:34:31;10.63;;;5.27;;
64595;SDS011;51003;51.628;6.670;2023-04-03T21:37:05;7.50;;;4.80;;
64595;SDS011;51003;51.628;6.670;2023-04-03T21:39:34;9.33;;;4.83;;
64595;SDS011;51003;51.628;6.670;2023-04-03T21:42:04;6.33;;;4.47;;
64595;SDS011;51003;51.628;6.670;2023-04-03T21:44:34;7.70;;;4.07;;
64595;SDS011;51003;51.628;6.670;2023-04-03T21:47:26;8.40;;;3.33;;
64595;SDS011;51003;51.628;6.670;2023-04-03T21:49:52;3.93;;;2.80;;
64595;SDS011;51003;51.628;6.670;2023-04-03T21:52:35;3.30;;;2.60;;
64595;SDS011;51003;51.628;6.670;2023-04-03T21:55:01;4.80;;;2.97;;
64595;SDS011;51003;51.628;6.670;2023-04-03T21:57:33;3.60;;;2.90;;
64595;SDS011;51003;51.628;6.670;2023-04-03T22:00:08;10.57;;;3.27;;
64595;SDS011;51003;51.628;6.670;2023-04-03T22:02:52;7.10;;;3.80;;
64595;SDS011;51003;51.628;6.670;2023-04-03T22:08:07;6.70;;;4.30;;
64595;SDS011;51003;51.628;6.670;2023-04-03T22:10:37;8.87;;;4.50;;
64595;SDS011;51003;51.628;6.670;2023-04-03T22:13:29;7.70;;;4.77;;
64595;SDS011;51003;51.628;6.670;2023-04-03T22:15:59;10.50;;;5.00;;
64595;SDS011;51003;51.628;6.670;2023-04-03T22:18:28;13.23;;;5.20;;
64595;SDS011;51003;51.628;6.670;2023-04-03T22:21:23;11.47;;;5.53;;
64595;SDS011;51003;51.628;6.670;2023-04-03T22:23:55;9.60;;;5.33;;
64595;SDS011;51003;51.628;6.670;2023-04-03T22:26:39;8.20;;;4.70;;
64595;SDS011;51003;51.628;6.670;2023-04-03T22:29:55;10.03;;;5.17;;
64595;SDS011;51003;51.628;6.670;2023-04-03T22:33:07;8.10;;;4.77;;
64595;SDS011;51003;51.628;6.670;2023-04-03T22:35:53;8.80;;;4.43;;
64595;SDS011;51003;51.628;6.670;2023-04-03T22:38:30;8.00;;;4.53;;
64595;SDS011;51003;51.628;6.670;2023-04-03T22:41:27;8.47;;;4.07;;
64595;SDS011;51003;51.628;6.670;2023-04-03T22:44:28;7.60;;;3.70;;
64595;SDS011;51003;51.628;6.670;2023-04-03T22:47:02;6.10;;;3.73;;
64595;SDS011;51003;51.628;6.670;2023-04-03T22:50:07;7.47;;;3.83;;
64595;SDS011;51003;51.628;6.670;2023-04-03T22:52:38;5.10;;;3.60;;
64595;SDS011;51003;51.628;6.670;2023-04-03T22:55:12;4.30;;;2.87;;
64595;SDS011;51003;51.628;6.670;2023-04-03T22:57:44;5.70;;;2.70;;
64595;SDS011;51003;51.628;6.670;2023-04-03T23:00:14;4.37;;;3.20;;
64595;SDS011;51003;51.628;6.670;2023-04-03T23:02:58;5.67;;;3.17;;
64595;SDS011;51003;51.628;6.670;2023-04-03T23:05:25;6.83;;;3.10;;
64595;SDS011;51003;51.628;6.670;2023-04-03T23:07:52;5.53;;;2.97;;
64595;SDS011;51003;51.628;6.670;2023-04-03T23:10:40;4.20;;;3.20;;
64595;SDS011;51003;51.628;6.670;2023-04-03T23:13:06;3.93;;;3.30;;
64595;SDS011;51003;51.628;6.670;2023-04-03T23:15:50;4.10;;;3.07;;
64595;SDS011;51003;51.628;6.670;2023-04-03T23:18:28;4.20;;;3.40;;
64595;SDS011;51003;51.628;6.670;2023-04-03T23:21:01;7.20;;;3.40;;
64595;SDS011;51003;51.628;6.670;2023-04-03T23:23:36;5.50;;;2.97;;
64595;SDS011;51003;51.628;6.670;2023-04-03T23:26:08;4.27;;;2.80;;
64595;SDS011;51003;51.628;6.670;2023-04-03T23:28:36;2.83;;;2.60;;
64595;SDS011;51003;51.628;6.670;2023-04-03T23:31:04;5.37;;;3.37;;
64595;SDS011;51003;51.628;6.670;2023-04-03T23:33:41;3.87;;;2.90;;
